createdAt,value
2018-08-12T00:00:37.486Z,55.86
2018-08-12T00:03:07.371Z,56.74
2018-08-12T00:05:37.250Z,57.88
2018-08-12T00:08:07.198Z,57.82
2018-08-12T00:10:36.782Z,57.70
2018-08-12T00:13:06.838Z,58.24
2018-08-12T00:15:36.910Z,57.71
2018-08-12T00:18:06.974Z,58.11
2018-08-12T00:20:36.898Z,57.94
2018-08-12T00:23:06.494Z,58.16
2018-08-12T00:25:36.378Z,57.73
2018-08-12T00:28:06.457Z,57.31
2018-08-12T00:30:36.014Z,58.96
2018-08-12T00:33:05.898Z,57.97
2018-08-12T00:35:35.722Z,58.85
2018-08-12T00:38:05.876Z,59.50
2018-08-12T00:40:35.371Z,59.48
2018-08-12T00:43:04.845Z,59.08
2018-08-12T00:45:34.256Z,59.20
2018-08-12T00:48:04.212Z,59.62
2018-08-12T00:50:33.663Z,59.14
2018-08-12T00:53:03.189Z,59.15
2018-08-12T00:55:33.184Z,59.29
2018-08-12T00:58:02.745Z,58.89
2018-08-12T01:00:32.882Z,59.13
2018-08-12T01:03:02.404Z,58.81
2018-08-12T01:05:31.957Z,59.09
2018-08-12T01:08:01.433Z,59.21
2018-08-12T01:10:30.923Z,59.34
2018-08-12T01:13:00.425Z,59.54
2018-08-12T01:15:29.857Z,59.82
2018-08-12T01:17:59.345Z,59.45
2018-08-12T01:20:29.188Z,60.26
2018-08-12T01:22:58.958Z,61.31
2018-08-12T01:25:29.081Z,60.66
2018-08-12T01:27:58.512Z,60.54
2018-08-12T01:30:28.013Z,60.66
2018-08-12T01:32:57.499Z,61.08
2018-08-12T01:35:27.281Z,60.94
2018-08-12T01:37:57.237Z,60.43
2018-08-12T01:40:27.026Z,60.98
2018-08-12T01:42:56.369Z,60.82
2018-08-12T01:45:25.849Z,60.90
2018-08-12T01:47:55.757Z,61.25
2018-08-12T01:50:25.185Z,61.18
2018-08-12T01:52:54.999Z,61.25
2018-08-12T01:55:25.313Z,61.35
2018-08-12T01:57:55.601Z,61.32
2018-08-12T02:00:25.116Z,60.86
2018-08-12T02:02:54.648Z,61.73
2018-08-12T02:05:24.312Z,61.99
2018-08-12T02:07:54.273Z,62.86
2018-08-12T02:10:24.416Z,63.96
2018-08-12T02:12:54.352Z,63.51
2018-08-12T02:15:24.252Z,63.04
2018-08-12T02:17:54.197Z,64.36
2018-08-12T02:20:23.997Z,63.07
2018-08-12T02:22:55.147Z,63.43
2018-08-12T02:25:24.629Z,63.24
2018-08-12T02:27:54.713Z,63.40
2018-08-12T02:30:24.987Z,63.20
2018-08-12T02:32:55.343Z,63.66
2018-08-12T02:35:24.870Z,64.17
2018-08-12T02:37:54.691Z,64.28
2018-08-12T02:40:25.585Z,64.79
2018-08-12T02:42:54.973Z,64.05
2018-08-12T02:45:24.515Z,63.83
2018-08-12T02:47:54.281Z,63.77
2018-08-12T02:50:24.161Z,63.69
2018-08-12T02:52:53.785Z,63.96
2018-08-12T02:55:23.547Z,65.23
2018-08-12T02:57:53.394Z,65.03
2018-08-12T03:00:23.223Z,64.75
2018-08-12T03:02:53.085Z,64.78
2018-08-12T03:05:22.816Z,64.92
2018-08-12T03:07:52.964Z,65.15
2018-08-12T03:10:22.733Z,67.14
2018-08-12T03:12:53.085Z,67.15
2018-08-12T03:15:23.465Z,67.12
2018-08-12T03:17:52.896Z,67.26
2018-08-12T03:20:22.737Z,67.13
2018-08-12T03:22:52.736Z,66.66
2018-08-12T03:25:23.794Z,66.36
2018-08-12T03:27:53.304Z,67.29
2018-08-12T03:30:22.822Z,67.29
2018-08-12T03:32:52.688Z,66.65
2018-08-12T03:35:22.233Z,67.01
2018-08-12T03:37:51.758Z,66.42
2018-08-12T03:40:21.660Z,66.79
2018-08-12T03:42:51.541Z,66.66
2018-08-12T03:45:21.061Z,67.52
2018-08-12T03:47:50.993Z,67.22
2018-08-12T03:50:20.893Z,67.02
2018-08-12T03:52:50.901Z,67.91
2018-08-12T03:55:20.357Z,67.44
2018-08-12T03:57:50.329Z,67.16
2018-08-12T04:00:20.145Z,66.83
2018-08-12T04:02:50.395Z,66.42
2018-08-12T04:05:21.314Z,65.84
2018-08-12T04:07:51.155Z,66.06
2018-08-12T04:10:21.052Z,65.32
2018-08-12T04:12:51.157Z,65.53
2018-08-12T04:15:22.319Z,65.69
2018-08-12T04:17:52.484Z,65.91
2018-08-12T04:20:22.296Z,66.05
2018-08-12T04:22:52.371Z,64.98
2018-08-12T04:25:21.888Z,64.86
2018-08-12T04:27:51.431Z,64.35
2018-08-12T04:30:21.368Z,64.85
2018-08-12T04:32:50.881Z,64.00
2018-08-12T04:35:21.184Z,63.67
2018-08-12T04:37:50.730Z,63.89
2018-08-12T04:40:20.584Z,63.02
2018-08-12T04:42:50.540Z,63.21
2018-08-12T04:45:20.670Z,62.96
2018-08-12T04:47:51.310Z,62.35
2018-08-12T04:50:22.302Z,61.94
2018-08-12T04:52:52.879Z,61.61
2018-08-12T04:55:22.957Z,61.88
2018-08-12T04:57:53.034Z,61.81
2018-08-12T05:00:23.903Z,62.05
2018-08-12T05:02:53.541Z,62.34
2018-08-12T05:05:23.138Z,61.56
2018-08-12T05:07:52.670Z,61.87
2018-08-12T05:10:22.247Z,62.02
2018-08-12T05:12:52.266Z,62.02
2018-08-12T05:15:21.690Z,61.27
2018-08-12T05:17:51.424Z,60.86
2018-08-12T05:20:20.920Z,60.99
2018-08-12T05:22:51.052Z,60.24
2018-08-12T05:25:20.576Z,59.92
2018-08-12T05:27:51.056Z,59.67
2018-08-12T05:30:20.609Z,59.40
2018-08-12T05:32:51.235Z,59.38
2018-08-12T05:35:21.335Z,59.17
2018-08-12T05:37:50.894Z,58.51
2018-08-12T05:40:20.430Z,58.63
2018-08-12T05:42:51.317Z,58.49
2018-08-12T05:45:21.337Z,58.45
2018-08-12T05:47:52.018Z,58.12
2018-08-12T05:50:22.517Z,58.24
2018-08-12T05:52:52.019Z,57.94
2018-08-12T05:55:21.540Z,57.85
2018-08-12T05:57:51.176Z,58.07
2018-08-12T06:00:20.796Z,57.34
2018-08-12T06:02:51.329Z,57.00
2018-08-12T06:05:21.238Z,56.59
2018-08-12T06:07:51.655Z,56.18
2018-08-12T06:10:21.285Z,55.64
2018-08-12T06:12:50.815Z,55.10
2018-08-12T06:15:20.398Z,54.66
2018-08-12T06:17:50.411Z,54.61
2018-08-12T06:20:19.911Z,54.44
2018-08-12T06:22:49.838Z,54.55
2018-08-12T06:25:20.624Z,53.93
2018-08-12T06:27:50.698Z,53.91
2018-08-12T06:30:20.465Z,54.08
2018-08-12T06:32:51.036Z,53.43
2018-08-12T06:35:21.563Z,52.89
2018-08-12T06:37:51.070Z,52.95
2018-08-12T06:40:20.556Z,52.78
2018-08-12T06:42:50.269Z,51.90
2018-08-12T06:45:20.122Z,52.00
2018-08-12T06:47:49.801Z,50.12
2018-08-12T06:50:19.967Z,49.57
2018-08-12T06:52:51.419Z,48.64
2018-08-12T06:55:21.036Z,48.87
2018-08-12T06:57:51.944Z,48.43
2018-08-12T07:00:21.505Z,47.00
2018-08-12T07:02:51.180Z,46.85
2018-08-12T07:05:22.424Z,46.76
2018-08-12T07:07:52.028Z,46.70
2018-08-12T07:10:24.359Z,46.09
2018-08-12T07:12:55.926Z,45.24
2018-08-12T07:15:25.776Z,44.72
2018-08-12T07:17:55.345Z,44.07
2018-08-12T07:20:31.051Z,43.62
2018-08-12T07:23:00.763Z,43.90
2018-08-12T07:25:30.499Z,44.40
2018-08-12T07:28:01.151Z,44.20
2018-08-12T07:30:30.763Z,43.90
2018-08-12T07:33:00.509Z,43.66
2018-08-12T07:35:37.331Z,42.92
2018-08-12T07:38:07.032Z,43.52
2018-08-12T07:40:36.875Z,43.22
2018-08-12T07:43:07.523Z,43.44
2018-08-12T07:45:37.612Z,42.94
2018-08-12T07:48:08.099Z,42.56
2018-08-12T07:50:37.549Z,42.41
2018-08-12T07:53:07.295Z,42.53
2018-08-12T07:55:37.245Z,42.81
2018-08-12T07:58:09.717Z,42.54
2018-08-12T08:00:39.770Z,41.70
2018-08-12T08:03:10.982Z,39.88
2018-08-12T08:05:41.761Z,40.43
2018-08-12T08:08:12.102Z,40.25
2018-08-12T08:10:42.586Z,41.13
2018-08-12T08:13:12.444Z,40.38
2018-08-12T08:15:42.936Z,40.18
2018-08-12T08:18:12.544Z,40.75
2018-08-12T08:20:42.908Z,39.72
2018-08-12T08:23:13.413Z,40.48
2018-08-12T08:25:43.352Z,39.42
2018-08-12T08:28:13.102Z,38.67
2018-08-12T08:30:43.866Z,39.33
2018-08-12T08:33:13.942Z,40.63
2018-08-12T08:35:43.955Z,38.60
2018-08-12T08:38:14.250Z,37.59
2018-08-12T08:40:43.984Z,38.38
2018-08-12T08:43:15.073Z,38.32
2018-08-12T08:45:45.213Z,39.08
2018-08-12T08:48:14.660Z,37.12
2018-08-12T08:50:44.509Z,36.95
2018-08-12T08:53:15.169Z,35.82
2018-08-12T08:55:45.707Z,34.74
2018-08-12T08:58:17.065Z,35.82
2018-08-12T09:00:50.407Z,36.74
2018-08-12T09:03:20.402Z,35.83
2018-08-12T09:05:52.898Z,35.75
2018-08-12T09:08:22.949Z,36.74
2018-08-12T09:10:52.335Z,37.05
2018-08-12T09:13:22.206Z,36.48
2018-08-12T09:15:51.806Z,35.79
2018-08-12T09:18:24.062Z,34.99
2018-08-12T09:20:53.930Z,33.99
2018-08-12T09:23:23.487Z,34.21
2018-08-12T09:25:53.021Z,32.21
2018-08-12T09:28:23.181Z,31.37
2018-08-12T09:30:52.695Z,30.12
2018-08-12T09:33:22.549Z,30.00
2018-08-12T09:35:53.121Z,32.46
2018-08-12T09:38:23.469Z,28.88
2018-08-12T09:41:01.262Z,29.18
2018-08-12T09:43:32.694Z,29.16
2018-08-12T09:46:04.033Z,30.11
2018-08-12T09:48:34.419Z,29.25
2018-08-12T09:51:05.683Z,30.88
2018-08-12T09:53:35.817Z,31.48
2018-08-12T09:56:06.560Z,31.22
2018-08-12T09:58:36.721Z,31.50
2018-08-12T10:01:06.336Z,30.76
2018-08-12T10:03:37.035Z,30.09
2018-08-12T10:06:07.237Z,28.43
2018-08-12T10:08:39.791Z,29.17
2018-08-12T10:11:10.173Z,30.62
2018-08-12T10:13:40.054Z,28.84
2018-08-12T10:16:10.171Z,27.08
2018-08-12T10:18:40.802Z,28.15
2018-08-12T10:21:12.630Z,28.43
2018-08-12T10:23:42.395Z,28.61
2018-08-12T10:26:12.425Z,28.45
2018-08-12T10:28:42.191Z,28.54
2018-08-12T10:31:12.013Z,28.49
2018-08-12T10:33:42.234Z,28.11
2018-08-12T10:36:12.356Z,28.62
2018-08-12T10:38:42.062Z,28.61
2018-08-12T10:41:12.486Z,28.16
2018-08-12T10:43:43.041Z,27.66
2018-08-12T10:46:15.558Z,28.37
2018-08-12T10:48:46.702Z,27.86
2018-08-12T10:51:17.449Z,28.10
2018-08-12T10:53:47.750Z,28.75
2018-08-12T10:56:21.658Z,27.38
2018-08-12T10:58:52.926Z,27.51
2018-08-12T11:01:23.350Z,27.12
2018-08-12T11:03:53.820Z,27.45
2018-08-12T11:06:25.509Z,27.48
2018-08-12T11:08:56.750Z,27.30
2018-08-12T11:11:27.285Z,26.70
2018-08-12T11:13:56.913Z,27.06
2018-08-12T11:16:28.065Z,27.37
2018-08-12T11:18:59.533Z,28.07
2018-08-12T11:21:30.539Z,27.52
2018-08-12T11:24:00.337Z,27.51
2018-08-12T11:26:30.130Z,27.14
2018-08-12T11:29:00.189Z,27.01
2018-08-12T11:31:31.193Z,26.58
2018-08-12T11:34:01.368Z,26.52
2018-08-12T11:36:30.845Z,25.73
2018-08-12T11:39:01.055Z,25.48
2018-08-12T11:41:31.729Z,26.24
2018-08-12T11:44:01.537Z,26.07
2018-08-12T11:46:32.030Z,26.01
2018-08-12T11:49:02.345Z,25.99
2018-08-12T11:51:32.025Z,26.51
2018-08-12T11:54:01.476Z,25.68
2018-08-12T11:56:31.338Z,25.52
2018-08-12T11:59:00.803Z,26.06
2018-08-12T12:01:30.790Z,26.46
2018-08-12T12:04:00.599Z,26.22
2018-08-12T12:06:30.985Z,26.13
2018-08-12T12:09:00.486Z,26.30
2018-08-12T12:11:30.407Z,26.56
2018-08-12T12:14:00.795Z,26.46
2018-08-12T12:16:31.761Z,26.06
2018-08-12T12:19:02.117Z,25.84
2018-08-12T12:21:32.354Z,24.99
2018-08-12T12:24:02.801Z,25.34
2018-08-12T12:26:32.734Z,25.69
2018-08-12T12:29:03.013Z,25.82
2018-08-12T12:31:32.916Z,25.56
2018-08-12T12:34:02.479Z,25.72
2018-08-12T12:36:32.467Z,24.61
2018-08-12T12:39:03.180Z,24.57
2018-08-12T12:41:33.157Z,24.35
2018-08-12T12:44:03.208Z,24.82
2018-08-12T12:46:33.073Z,24.95
2018-08-12T12:49:03.174Z,25.21
2018-08-12T12:51:33.178Z,25.21
2018-08-12T12:54:03.129Z,24.25
2018-08-12T12:56:33.777Z,24.49
2018-08-12T12:59:04.400Z,23.58
2018-08-12T13:01:34.337Z,24.72
2018-08-12T13:04:06.577Z,24.46
2018-08-12T13:06:36.557Z,24.47
2018-08-12T13:09:14.390Z,23.74
2018-08-12T13:11:43.975Z,24.21
2018-08-12T13:14:14.514Z,24.92
2018-08-12T13:16:44.383Z,25.00
2018-08-12T13:19:15.294Z,25.62
2018-08-12T13:21:46.367Z,25.52
2018-08-12T13:24:15.894Z,25.89
2018-08-12T13:26:46.034Z,24.06
2018-08-12T13:29:16.077Z,24.77
2018-08-12T13:31:46.930Z,24.95
2018-08-12T13:34:16.848Z,24.83
2018-08-12T13:36:46.259Z,24.26
2018-08-12T13:39:16.721Z,23.40
2018-08-12T13:41:47.591Z,23.87
2018-08-12T13:44:17.070Z,24.89
2018-08-12T13:46:46.965Z,24.83
2018-08-12T13:49:16.650Z,25.26
2018-08-12T13:51:47.732Z,24.49
2018-08-12T13:54:17.341Z,24.88
2018-08-12T13:56:47.317Z,24.32
2018-08-12T13:59:18.345Z,25.74
2018-08-12T14:01:48.468Z,23.50
2018-08-12T14:04:18.322Z,24.17
2018-08-12T14:06:49.260Z,24.89
2018-08-12T14:09:19.312Z,23.96
2018-08-12T14:11:49.624Z,24.45
2018-08-12T14:14:20.083Z,23.93
2018-08-12T14:16:49.996Z,22.90
2018-08-12T14:19:20.118Z,23.14
2018-08-12T14:21:50.009Z,24.17
2018-08-12T14:24:20.005Z,25.65
2018-08-12T14:26:59.901Z,25.20
2018-08-12T14:29:29.373Z,25.13
2018-08-12T14:31:58.859Z,25.51
2018-08-12T14:34:28.668Z,25.09
2018-08-12T14:36:58.537Z,24.47
2018-08-12T14:39:28.040Z,25.17
2018-08-12T14:41:58.072Z,26.10
2018-08-12T14:44:28.159Z,25.04
2018-08-12T14:46:58.252Z,24.81
2018-08-12T14:49:27.920Z,24.59
2018-08-12T14:51:57.940Z,24.53
2018-08-12T14:54:27.921Z,23.85
2018-08-12T14:56:57.742Z,24.86
2018-08-12T14:59:27.729Z,23.92
2018-08-12T15:01:57.232Z,24.10
2018-08-12T15:04:26.744Z,24.38
2018-08-12T15:06:56.358Z,23.43
2018-08-12T15:09:26.140Z,23.33
2018-08-12T15:11:56.166Z,23.08
2018-08-12T15:14:26.065Z,23.15
2018-08-12T15:16:55.437Z,23.36
2018-08-12T15:19:24.978Z,23.58
2018-08-12T15:21:54.957Z,23.60
2018-08-12T15:24:24.989Z,24.18
2018-08-12T15:26:54.663Z,24.64
2018-08-12T15:29:24.113Z,22.18
2018-08-12T15:31:53.623Z,22.88
2018-08-12T15:34:24.778Z,22.27
2018-08-12T15:36:54.664Z,22.30
2018-08-12T15:39:24.198Z,21.88
2018-08-12T15:41:54.206Z,22.64
2018-08-12T15:44:24.067Z,22.39
2018-08-12T15:46:53.585Z,22.51
2018-08-12T15:49:47.082Z,22.59
2018-08-12T15:52:16.608Z,22.67
2018-08-12T15:54:46.411Z,22.62
2018-08-12T15:57:16.392Z,22.21
2018-08-12T15:59:45.878Z,22.18
2018-08-12T16:02:15.775Z,22.45
2018-08-12T16:04:45.775Z,22.50
2018-08-12T16:07:16.502Z,22.18
2018-08-12T16:09:46.042Z,21.49
2018-08-12T16:12:15.812Z,21.59
2018-08-12T16:14:47.003Z,21.40
2018-08-12T16:17:17.389Z,21.63
2018-08-12T16:19:47.952Z,21.01
2018-08-12T16:22:23.227Z,21.25
2018-08-12T16:24:53.414Z,21.55
2018-08-12T16:27:44.586Z,21.68
2018-08-12T16:30:20.347Z,21.88
2018-08-12T16:32:52.735Z,22.36
2018-08-12T16:38:01.050Z,22.58
2018-08-12T16:40:34.514Z,21.76
2018-08-12T16:43:05.085Z,22.72
2018-08-12T16:45:36.794Z,22.06
2018-08-12T16:48:07.195Z,22.37
2018-08-12T16:50:38.225Z,22.89
2018-08-12T16:53:08.465Z,23.17
2018-08-12T16:55:38.860Z,23.27
2018-08-12T16:58:09.947Z,23.26
2018-08-12T17:00:41.674Z,23.32
2018-08-12T17:03:11.268Z,23.11
2018-08-12T17:05:41.598Z,24.10
2018-08-12T17:08:12.600Z,23.56
2018-08-12T17:10:42.466Z,23.82
2018-08-12T17:13:12.911Z,23.59
2018-08-12T17:15:44.111Z,24.26
2018-08-12T17:18:14.084Z,24.25
2018-08-12T17:20:44.758Z,24.54
2018-08-12T17:23:14.291Z,24.80
2018-08-12T17:25:44.937Z,24.79
2018-08-12T17:28:16.385Z,24.96
2018-08-12T17:30:47.235Z,25.75
2018-08-12T17:33:17.325Z,25.65
2018-08-12T17:35:47.930Z,26.25
2018-08-12T17:38:17.582Z,25.99
2018-08-12T17:40:53.398Z,26.83
2018-08-12T17:43:22.955Z,26.54
2018-08-12T17:45:52.643Z,27.51
2018-08-12T17:48:23.609Z,27.78
2018-08-12T17:50:53.336Z,27.83
2018-08-12T17:53:23.419Z,28.64
2018-08-12T17:55:54.644Z,28.88
2018-08-12T17:58:24.312Z,29.72
2018-08-12T18:00:54.548Z,29.68
2018-08-12T18:03:24.082Z,29.84
2018-08-12T18:05:54.635Z,30.55
2018-08-12T18:08:24.560Z,30.36
2018-08-12T18:10:56.623Z,30.95
2018-08-12T18:13:28.514Z,30.53
2018-08-12T18:15:58.167Z,30.83
2018-08-12T18:18:28.991Z,32.37
2018-08-12T18:20:59.009Z,33.02
2018-08-12T18:23:29.660Z,32.88
2018-08-12T18:26:00.993Z,33.65
2018-08-12T18:28:30.590Z,33.20
2018-08-12T18:31:01.073Z,33.66
2018-08-12T18:33:31.004Z,34.00
2018-08-12T18:36:01.208Z,34.52
2018-08-12T18:38:31.153Z,34.16
2018-08-12T18:41:01.285Z,34.81
2018-08-12T18:43:31.118Z,34.82
2018-08-12T18:46:00.646Z,36.00
2018-08-12T18:48:30.294Z,35.90
2018-08-12T18:51:01.607Z,36.59
2018-08-12T18:53:31.413Z,36.45
2018-08-12T18:56:01.378Z,37.09
2018-08-12T18:58:31.025Z,37.30
2018-08-12T19:01:00.521Z,37.65
2018-08-12T19:03:30.459Z,38.35
2018-08-12T19:06:00.481Z,38.52
2018-08-12T19:08:29.947Z,38.53
2018-08-12T19:10:59.526Z,38.54
2018-08-12T19:13:29.088Z,39.57
2018-08-12T19:15:58.797Z,40.19
2018-08-12T19:18:28.308Z,40.25
2018-08-12T19:20:57.871Z,39.97
2018-08-12T19:23:28.105Z,39.68
2018-08-12T19:25:57.648Z,39.46
2018-08-12T19:28:27.241Z,39.54
2018-08-12T19:30:57.232Z,39.27
2018-08-12T19:33:28.473Z,39.17
2018-08-12T19:35:57.973Z,38.91
2018-08-12T19:38:27.948Z,38.45
2018-08-12T19:40:57.413Z,38.40
2018-08-12T19:43:27.625Z,38.42
2018-08-12T19:45:57.089Z,38.11
2018-08-12T19:48:26.697Z,38.30
2018-08-12T19:50:56.652Z,38.69
2018-08-12T19:53:26.559Z,38.73
2018-08-12T19:55:56.439Z,39.35
2018-08-12T19:58:25.983Z,39.30
2018-08-12T20:00:56.955Z,39.59
2018-08-12T20:03:26.821Z,39.74
2018-08-12T20:05:56.405Z,39.46
2018-08-12T20:08:27.298Z,39.38
2018-08-12T20:10:57.333Z,39.85
2018-08-12T20:13:27.285Z,40.36
2018-08-12T20:15:56.975Z,40.85
2018-08-12T20:18:27.046Z,40.85
2018-08-12T20:20:56.905Z,41.23
2018-08-12T20:23:27.362Z,41.40
2018-08-12T20:25:57.421Z,41.16
2018-08-12T20:28:27.557Z,41.06
2018-08-12T20:30:57.876Z,41.44
2018-08-12T20:33:27.430Z,41.47
2018-08-12T20:35:57.237Z,41.99
2018-08-12T20:38:27.082Z,42.21
2018-08-12T20:40:58.388Z,43.15
2018-08-12T20:43:30.037Z,43.35
2018-08-12T20:45:59.863Z,43.16
2018-08-12T20:48:30.283Z,43.55
2018-08-12T20:50:59.980Z,43.18
2018-08-12T20:53:29.764Z,43.52
2018-08-12T20:56:00.761Z,43.35
2018-08-12T20:58:31.780Z,43.97
2018-08-12T21:01:03.428Z,43.95
2018-08-12T21:03:33.857Z,44.19
2018-08-12T21:06:04.221Z,44.52
2018-08-12T21:08:37.348Z,45.28
2018-08-12T21:11:07.660Z,44.94
2018-08-12T21:13:37.806Z,45.03
2018-08-12T21:16:08.535Z,45.88
2018-08-12T21:18:38.770Z,47.02
2018-08-12T21:21:09.248Z,46.24
2018-08-12T21:23:38.777Z,46.44
2018-08-12T21:26:08.200Z,46.32
2018-08-12T21:28:38.292Z,45.87
2018-08-12T21:31:08.287Z,45.04
2018-08-12T21:33:37.940Z,45.24
2018-08-12T21:36:07.616Z,45.26
2018-08-12T21:38:37.530Z,45.11
2018-08-12T21:41:07.040Z,44.93
2018-08-12T21:43:37.022Z,45.51
2018-08-12T21:46:07.196Z,45.11
2018-08-12T21:48:38.007Z,45.37
2018-08-12T21:51:07.961Z,45.19
2018-08-12T21:53:37.665Z,45.28
2018-08-12T21:56:07.240Z,45.32
2018-08-12T21:58:36.916Z,44.78
2018-08-12T22:01:07.128Z,45.07
2018-08-12T22:03:36.715Z,45.08
2018-08-12T22:06:06.674Z,44.95
2018-08-12T22:08:36.523Z,45.33
2018-08-12T22:11:06.768Z,45.23
2018-08-12T22:13:36.280Z,45.44
2018-08-12T22:16:05.990Z,46.07
2018-08-12T22:18:35.467Z,45.72
2018-08-12T22:21:05.268Z,46.10
2018-08-12T22:23:34.688Z,46.09
2018-08-12T22:26:06.436Z,45.49
2018-08-12T22:28:35.912Z,45.83
2018-08-12T22:31:05.884Z,45.47
2018-08-12T22:33:35.468Z,45.62
2018-08-12T22:36:05.356Z,45.26
2018-08-12T22:38:35.347Z,45.83
2018-08-12T22:41:05.447Z,45.94
2018-08-12T22:43:35.447Z,45.98
2018-08-12T22:46:05.062Z,46.03
2018-08-12T22:48:34.709Z,45.61
2018-08-12T22:51:04.509Z,45.99
2018-08-12T22:53:33.999Z,46.11
2018-08-12T22:56:03.494Z,46.74
2018-08-12T22:58:33.395Z,46.61
2018-08-12T23:01:03.200Z,47.15
2018-08-12T23:03:33.069Z,47.15
2018-08-12T23:06:03.041Z,47.09
2018-08-12T23:08:32.909Z,47.07
2018-08-12T23:11:02.923Z,47.67
2018-08-12T23:13:32.803Z,47.48
2018-08-12T23:16:14.693Z,46.96
2018-08-12T23:18:44.177Z,46.98
2018-08-12T23:21:15.368Z,47.01
2018-08-12T23:23:47.080Z,47.55
2018-08-12T23:26:20.167Z,47.44
2018-08-12T23:28:49.631Z,47.99
2018-08-12T23:31:19.105Z,47.36
2018-08-12T23:33:49.059Z,47.63
2018-08-12T23:36:18.612Z,47.23
2018-08-12T23:38:48.070Z,47.68
2018-08-12T23:41:17.570Z,47.38
2018-08-12T23:43:47.421Z,47.39
2018-08-12T23:46:16.888Z,47.45
2018-08-12T23:48:46.703Z,47.58
2018-08-12T23:51:16.534Z,47.92
2018-08-12T23:53:46.377Z,47.59
2018-08-12T23:56:16.323Z,47.66
2018-08-12T23:58:46.196Z,47.89
